createdAt,value
2022-08-02T00:00:10.657Z,0.00
2022-08-02T00:01:10.731Z,0.00
2022-08-02T00:02:10.843Z,0.00
2022-08-02T00:03:11.447Z,0.00
2022-08-02T00:04:10.645Z,0.00
2022-08-02T00:05:10.572Z,0.00
2022-08-02T00:06:10.580Z,0.00
2022-08-02T00:07:10.555Z,0.00
2022-08-02T00:08:10.541Z,0.00
2022-08-02T00:09:10.547Z,0.00
2022-08-02T00:10:10.530Z,0.00
2022-08-02T00:11:10.533Z,0.00
2022-08-02T00:12:10.982Z,0.00
2022-08-02T00:13:10.474Z,0.00
2022-08-02T00:14:10.544Z,0.00
2022-08-02T00:15:10.487Z,0.00
2022-08-02T00:16:11.427Z,0.00
2022-08-02T00:17:11.416Z,0.00
2022-08-02T00:18:10.400Z,0.00
2022-08-02T00:19:10.388Z,0.00
2022-08-02T00:20:10.400Z,0.00
2022-08-02T00:21:10.394Z,0.00
2022-08-02T00:22:10.693Z,0.00
2022-08-02T00:23:11.127Z,0.00
2022-08-02T00:24:29.912Z,0.00
2022-08-02T00:25:11.446Z,0.00
2022-08-02T00:26:10.299Z,0.00
2022-08-02T00:27:10.458Z,0.00
2022-08-02T00:28:10.312Z,0.00
2022-08-02T00:29:10.268Z,0.00
2022-08-02T00:30:10.241Z,0.00
2022-08-02T00:31:10.297Z,0.00
2022-08-02T00:32:10.469Z,0.00
2022-08-02T00:33:10.222Z,0.00
2022-08-02T00:34:28.675Z,0.00
2022-08-02T00:35:11.170Z,0.00
2022-08-02T00:36:10.150Z,0.00
2022-08-02T00:37:10.189Z,0.00
2022-08-02T00:38:11.210Z,0.00
2022-08-02T00:39:33.782Z,0.00
2022-08-02T00:40:11.202Z,0.00
2022-08-02T00:41:10.173Z,0.00
2022-08-02T00:42:10.784Z,0.00
2022-08-02T00:43:10.141Z,0.00
2022-08-02T00:44:11.422Z,0.00
2022-08-02T00:45:10.066Z,0.00
2022-08-02T00:46:10.071Z,0.00
2022-08-02T00:47:10.124Z,0.00
2022-08-02T00:48:10.013Z,0.00
2022-08-02T00:49:10.058Z,0.00
2022-08-02T00:50:10.167Z,0.00
2022-08-02T00:51:11.422Z,0.00
2022-08-02T00:52:10.335Z,0.00
2022-08-02T00:53:09.941Z,0.00
2022-08-02T00:54:09.963Z,0.00
2022-08-02T00:55:09.985Z,0.00
2022-08-02T00:56:09.954Z,0.00
2022-08-02T00:57:09.994Z,0.00
2022-08-02T00:58:10.002Z,0.00
2022-08-02T00:59:09.877Z,0.00
2022-08-02T01:00:09.912Z,0.00
2022-08-02T01:01:09.914Z,0.00
2022-08-02T01:02:10.353Z,0.00
2022-08-02T01:03:09.866Z,0.00
2022-08-02T01:04:09.867Z,0.00
2022-08-02T01:05:09.926Z,0.00
2022-08-02T01:06:11.677Z,0.00
2022-08-02T01:07:12.559Z,0.00
2022-08-02T01:08:09.766Z,0.00
2022-08-02T01:09:09.798Z,0.00
2022-08-02T01:10:09.821Z,0.00
2022-08-02T01:11:09.697Z,0.00
2022-08-02T01:12:10.085Z,0.00
2022-08-02T01:13:09.690Z,0.00
2022-08-02T01:14:09.676Z,0.00
2022-08-02T01:15:09.700Z,0.00
2022-08-02T01:16:09.702Z,0.00
2022-08-02T01:17:09.659Z,0.00
2022-08-02T01:18:09.700Z,0.00
2022-08-02T01:19:09.638Z,0.00
2022-08-02T01:20:10.621Z,0.00
2022-08-02T01:21:09.579Z,0.00
2022-08-02T01:22:09.811Z,0.00
2022-08-02T01:23:09.540Z,0.00
2022-08-02T01:24:09.618Z,0.00
2022-08-02T01:25:09.648Z,0.00
2022-08-02T01:26:09.576Z,0.00
2022-08-02T01:27:09.514Z,0.00
2022-08-02T01:28:09.550Z,0.00
2022-08-02T01:29:09.497Z,0.00
2022-08-02T01:30:09.500Z,0.00
2022-08-02T01:31:09.461Z,0.00
2022-08-02T01:32:09.770Z,0.00
2022-08-02T01:33:09.441Z,0.00
2022-08-02T01:34:09.464Z,0.00
2022-08-02T01:35:09.422Z,0.00
2022-08-02T01:36:09.450Z,0.00
2022-08-02T01:37:09.413Z,0.00
2022-08-02T01:38:09.434Z,0.00
2022-08-02T01:39:09.329Z,0.00
2022-08-02T01:40:09.462Z,0.00
2022-08-02T01:41:10.272Z,0.00
2022-08-02T01:42:10.458Z,0.00
2022-08-02T01:43:12.210Z,0.00
2022-08-02T01:44:09.293Z,0.00
2022-08-02T01:45:11.224Z,0.00
2022-08-02T01:46:09.356Z,0.00
2022-08-02T01:47:09.312Z,0.00
2022-08-02T01:48:09.239Z,0.00
2022-08-02T01:49:09.554Z,0.00
2022-08-02T01:50:09.207Z,0.00
2022-08-02T01:51:09.272Z,0.00
2022-08-02T01:52:09.560Z,0.00
2022-08-02T01:53:09.165Z,0.00
2022-08-02T01:54:09.155Z,0.00
2022-08-02T01:55:10.006Z,0.00
2022-08-02T01:56:10.138Z,0.00
2022-08-02T01:57:09.098Z,0.00
2022-08-02T01:58:09.127Z,0.00
2022-08-02T01:59:09.077Z,0.00
2022-08-02T02:00:09.066Z,0.00
2022-08-02T02:01:09.303Z,0.00
2022-08-02T02:02:10.383Z,0.00
2022-08-02T02:03:09.056Z,0.00
2022-08-02T02:04:09.111Z,0.00
2022-08-02T02:05:09.004Z,0.00
2022-08-02T02:06:09.029Z,0.00
2022-08-02T02:07:10.501Z,0.00
2022-08-02T02:08:09.190Z,0.00
2022-08-02T02:09:08.991Z,0.00
2022-08-02T02:10:08.933Z,0.00
2022-08-02T02:12:06.321Z,0.00
2022-08-02T02:12:14.029Z,0.00
2022-08-02T02:13:08.988Z,0.00
2022-08-02T02:14:08.929Z,0.00
2022-08-02T02:15:08.875Z,0.00
2022-08-02T02:16:08.962Z,0.00
2022-08-02T02:17:08.842Z,0.00
2022-08-02T02:18:12.597Z,0.00
2022-08-02T02:19:08.838Z,0.00
2022-08-02T02:20:08.807Z,0.00
2022-08-02T02:21:08.820Z,0.00
2022-08-02T02:22:09.046Z,0.00
2022-08-02T02:23:08.858Z,0.00
2022-08-02T02:24:11.756Z,0.00
2022-08-02T02:25:08.735Z,0.00
2022-08-02T02:26:09.325Z,0.00
2022-08-02T02:27:09.902Z,0.00
2022-08-02T02:28:08.738Z,0.00
2022-08-02T02:29:08.714Z,0.00
2022-08-02T02:30:08.751Z,0.00
2022-08-02T02:31:08.866Z,0.00
2022-08-02T02:32:09.156Z,0.00
2022-08-02T02:33:08.624Z,0.00
2022-08-02T02:34:08.721Z,0.00
2022-08-02T02:35:08.601Z,0.00
2022-08-02T02:36:08.606Z,0.00
2022-08-02T02:37:08.593Z,0.00
2022-08-02T02:38:08.585Z,0.00
2022-08-02T02:39:13.406Z,0.00
2022-08-02T02:40:09.570Z,0.00
2022-08-02T02:41:08.554Z,0.00
2022-08-02T02:42:08.848Z,0.00
2022-08-02T02:43:08.526Z,0.00
2022-08-02T02:44:08.520Z,0.00
2022-08-02T02:45:08.565Z,0.00
2022-08-02T02:46:17.134Z,0.00
2022-08-02T02:47:09.906Z,0.00
2022-08-02T02:48:08.618Z,0.00
2022-08-02T02:49:08.617Z,0.00
2022-08-02T02:50:08.440Z,0.00
2022-08-02T02:51:14.283Z,0.00
2022-08-02T02:52:09.744Z,0.00
2022-08-02T02:53:08.427Z,0.00
2022-08-02T02:54:32.327Z,0.00
2022-08-02T02:55:09.403Z,0.00
2022-08-02T02:56:08.447Z,0.00
2022-08-02T02:57:08.335Z,0.00
2022-08-02T02:58:09.107Z,0.00
2022-08-02T02:59:08.735Z,0.00
2022-08-02T03:00:08.325Z,0.00
2022-08-02T03:01:08.341Z,0.00
2022-08-02T03:02:08.299Z,0.00
2022-08-02T03:03:08.237Z,0.00
2022-08-02T03:04:08.304Z,0.00
2022-08-02T03:05:08.360Z,0.00
2022-08-02T03:06:15.734Z,0.00
2022-08-02T03:07:09.197Z,0.00
2022-08-02T03:08:08.219Z,0.00
2022-08-02T03:09:08.149Z,0.00
2022-08-02T03:10:08.158Z,0.00
2022-08-02T03:11:08.132Z,0.00
2022-08-02T03:12:08.277Z,0.00
2022-08-02T03:13:08.108Z,0.00
2022-08-02T03:14:08.093Z,0.00
2022-08-02T03:15:08.100Z,0.00
2022-08-02T03:16:08.049Z,0.00
2022-08-02T03:17:08.133Z,0.00
2022-08-02T03:18:08.056Z,0.00
2022-08-02T03:19:08.079Z,0.00
2022-08-02T03:20:08.023Z,0.00
2022-08-02T03:21:08.004Z,0.00
2022-08-02T03:22:08.143Z,0.00
2022-08-02T03:23:08.012Z,0.00
2022-08-02T03:24:08.769Z,0.00
2022-08-02T03:25:07.959Z,0.00
2022-08-02T03:26:07.971Z,0.00
2022-08-02T03:27:08.756Z,0.00
2022-08-02T03:28:08.021Z,0.00
2022-08-02T03:29:10.839Z,0.00
2022-08-02T03:30:07.874Z,0.00
2022-08-02T03:31:08.012Z,5.62
2022-08-02T03:32:07.924Z,5.62
2022-08-02T03:33:07.853Z,5.62
2022-08-02T03:34:07.825Z,5.62
2022-08-02T03:35:07.877Z,5.62
2022-08-02T03:36:07.829Z,5.62
2022-08-02T03:37:07.856Z,5.62
2022-08-02T03:38:07.781Z,5.62
2022-08-02T03:39:07.786Z,11.25
2022-08-02T03:40:07.753Z,11.25
2022-08-02T03:41:07.818Z,11.25
2022-08-02T03:42:07.953Z,11.25
2022-08-02T03:43:07.698Z,11.25
2022-08-02T03:44:07.694Z,11.25
2022-08-02T03:45:08.894Z,16.88
2022-08-02T03:46:07.669Z,16.88
2022-08-02T03:47:07.746Z,16.88
2022-08-02T03:48:33.722Z,22.50
2022-08-02T03:49:08.763Z,22.50
2022-08-02T03:50:07.696Z,22.50
2022-08-02T03:51:07.602Z,28.12
2022-08-02T03:52:07.896Z,28.12
2022-08-02T03:53:07.652Z,28.12
2022-08-02T03:54:08.603Z,33.75
2022-08-02T03:55:07.743Z,33.75
2022-08-02T03:56:07.538Z,33.75
2022-08-02T03:57:07.561Z,39.38
2022-08-02T03:58:07.510Z,39.38
2022-08-02T03:59:07.539Z,39.38
2022-08-02T04:00:07.529Z,45.00
2022-08-02T04:01:07.574Z,45.00
2022-08-02T04:02:08.741Z,50.62
2022-08-02T04:03:07.462Z,50.62
2022-08-02T04:04:07.456Z,50.62
2022-08-02T04:05:07.511Z,56.25
2022-08-02T04:06:07.401Z,56.25
2022-08-02T04:07:07.814Z,56.25
2022-08-02T04:08:35.601Z,56.25
2022-08-02T04:09:08.411Z,61.88
2022-08-02T04:10:07.370Z,61.88
2022-08-02T04:11:07.393Z,61.88
2022-08-02T04:12:07.359Z,61.88
2022-08-02T04:13:07.345Z,56.25
2022-08-02T04:14:07.689Z,61.88
2022-08-02T04:15:07.290Z,61.88
2022-08-02T04:16:07.303Z,67.50
2022-08-02T04:17:07.276Z,67.50
2022-08-02T04:18:07.300Z,67.50
2022-08-02T04:19:07.325Z,73.12
2022-08-02T04:20:07.256Z,73.12
2022-08-02T04:21:07.224Z,73.12
2022-08-02T04:22:07.233Z,78.75
2022-08-02T04:23:07.187Z,78.75
2022-08-02T04:24:07.210Z,84.38
2022-08-02T04:25:07.155Z,84.38
2022-08-02T04:26:07.968Z,84.38
2022-08-02T04:27:48.806Z,84.38
2022-08-02T04:28:16.658Z,84.38
2022-08-02T04:29:08.218Z,90.00
2022-08-02T04:30:07.103Z,95.62
2022-08-02T04:31:07.082Z,101.25
2022-08-02T04:32:07.064Z,106.88
2022-08-02T04:33:07.056Z,106.88
2022-08-02T04:34:07.049Z,101.25
2022-08-02T04:35:22.506Z,106.88
2022-08-02T04:36:08.058Z,106.88
2022-08-02T04:37:07.023Z,112.50
2022-08-02T04:38:10.202Z,112.50
2022-08-02T04:39:06.966Z,118.12
2022-08-02T04:40:07.541Z,118.12
2022-08-02T04:41:07.795Z,123.75
2022-08-02T04:42:06.946Z,129.38
2022-08-02T04:43:06.989Z,129.38
2022-08-02T04:44:06.908Z,129.38
2022-08-02T04:45:06.947Z,135.00
2022-08-02T04:46:06.972Z,135.00
2022-08-02T04:47:07.068Z,135.00
2022-08-02T04:48:06.938Z,140.62
2022-08-02T04:49:06.943Z,146.25
2022-08-02T04:50:07.587Z,146.25
2022-08-02T04:51:06.824Z,151.88
2022-08-02T04:52:06.821Z,157.50
2022-08-02T04:53:07.298Z,157.50
2022-08-02T04:54:09.927Z,163.12
2022-08-02T04:55:06.819Z,174.38
2022-08-02T04:56:06.810Z,174.38
2022-08-02T04:57:06.765Z,174.38
2022-08-02T04:58:23.815Z,180.00
2022-08-02T04:59:07.710Z,185.62
2022-08-02T05:00:06.703Z,191.25
2022-08-02T05:01:06.868Z,191.25
2022-08-02T05:02:06.692Z,191.25
2022-08-02T05:03:06.753Z,185.62
2022-08-02T05:04:06.673Z,185.62
2022-08-02T05:05:10.280Z,185.62
2022-08-02T05:06:18.763Z,191.25
2022-08-02T05:07:07.677Z,185.62
2022-08-02T05:08:06.625Z,191.25
2022-08-02T05:09:06.596Z,196.88
2022-08-02T05:10:06.581Z,202.50
2022-08-02T05:11:06.585Z,202.50
2022-08-02T05:12:06.583Z,202.50
2022-08-02T05:13:06.553Z,196.88
2022-08-02T05:14:06.526Z,191.25
2022-08-02T05:15:06.537Z,180.00
2022-08-02T05:16:06.476Z,180.00
2022-08-02T05:17:06.700Z,180.00
2022-08-02T05:18:06.525Z,185.62
2022-08-02T05:19:06.548Z,185.62
2022-08-02T05:20:06.457Z,185.62
2022-08-02T05:21:06.420Z,180.00
2022-08-02T05:22:06.449Z,180.00
2022-08-02T05:23:06.422Z,174.38
2022-08-02T05:24:06.397Z,174.38
2022-08-02T05:25:06.369Z,168.75
2022-08-02T05:26:06.382Z,157.50
2022-08-02T05:27:17.233Z,157.50
2022-08-02T05:28:11.428Z,163.12
2022-08-02T05:29:06.420Z,163.12
2022-08-02T05:30:06.542Z,168.75
2022-08-02T05:31:06.302Z,168.75
2022-08-02T05:32:07.544Z,174.38
2022-08-02T05:33:06.262Z,180.00
2022-08-02T05:34:11.367Z,185.62
2022-08-02T05:35:07.255Z,185.62
2022-08-02T05:36:06.249Z,191.25
2022-08-02T05:37:10.027Z,191.25
2022-08-02T05:38:10.117Z,191.25
2022-08-02T05:39:06.244Z,196.88
2022-08-02T05:40:12.700Z,196.88
2022-08-02T05:41:07.211Z,196.88
2022-08-02T05:42:06.144Z,196.88
2022-08-02T05:43:06.491Z,196.88
2022-08-02T05:44:06.122Z,202.50
2022-08-02T05:45:06.235Z,202.50
2022-08-02T05:46:06.162Z,202.50
2022-08-02T05:47:06.178Z,202.50
2022-08-02T05:48:06.054Z,202.50
2022-08-02T05:49:06.147Z,208.12
2022-08-02T05:50:06.597Z,208.12
2022-08-02T05:51:06.086Z,208.12
2022-08-02T05:52:06.002Z,213.75
2022-08-02T05:53:06.003Z,219.38
2022-08-02T05:54:06.012Z,219.38
2022-08-02T05:55:05.980Z,225.00
2022-08-02T05:56:08.629Z,225.00
2022-08-02T05:57:06.082Z,225.00
2022-08-02T05:58:05.926Z,219.38
2022-08-02T05:59:05.982Z,213.75
2022-08-02T06:00:05.948Z,213.75
2022-08-02T06:01:05.909Z,213.75
2022-08-02T06:02:05.970Z,202.50
2022-08-02T06:03:05.872Z,208.12
2022-08-02T06:04:05.851Z,213.75
2022-08-02T06:05:05.849Z,219.38
2022-08-02T06:06:05.826Z,219.38
2022-08-02T06:07:05.819Z,219.38
2022-08-02T06:08:07.746Z,219.38
2022-08-02T06:09:05.814Z,219.38
2022-08-02T06:10:05.797Z,213.75
2022-08-02T06:11:07.740Z,213.75
2022-08-02T06:12:05.767Z,208.12
2022-08-02T06:13:05.748Z,208.12
2022-08-02T06:14:05.728Z,208.12
2022-08-02T06:15:05.759Z,208.12
2022-08-02T06:16:05.730Z,208.12
2022-08-02T06:17:06.699Z,208.12
2022-08-02T06:18:05.720Z,202.50
2022-08-02T06:19:05.646Z,202.50
2022-08-02T06:20:05.634Z,202.50
2022-08-02T06:22:29.505Z,202.50
2022-08-02T06:22:42.401Z,202.50
2022-08-02T06:23:10.761Z,202.50
2022-08-02T06:24:06.629Z,202.50
2022-08-02T06:25:05.572Z,202.50
2022-08-02T06:26:05.581Z,202.50
2022-08-02T06:27:05.542Z,202.50
2022-08-02T06:28:11.314Z,208.12
2022-08-02T06:29:06.523Z,208.12
2022-08-02T06:30:05.519Z,208.12
2022-08-02T06:31:05.650Z,208.12
2022-08-02T06:32:05.555Z,208.12
2022-08-02T06:33:05.637Z,208.12
2022-08-02T06:34:05.514Z,208.12
2022-08-02T06:35:05.493Z,208.12
2022-08-02T06:36:05.943Z,208.12
2022-08-02T06:37:05.451Z,208.12
2022-08-02T06:38:05.403Z,208.12
2022-08-02T06:39:05.415Z,208.12
2022-08-02T06:40:05.416Z,208.12
2022-08-02T06:41:05.396Z,208.12
2022-08-02T06:42:05.414Z,208.12
2022-08-02T06:43:05.336Z,208.12
2022-08-02T06:44:27.739Z,213.75
2022-08-02T06:45:06.386Z,213.75
2022-08-02T06:46:34.500Z,213.75
2022-08-02T06:47:12.057Z,213.75
2022-08-02T06:48:06.305Z,213.75
2022-08-02T06:49:05.347Z,208.12
2022-08-02T06:50:05.311Z,208.12
2022-08-02T06:51:06.065Z,208.12
2022-08-02T06:52:05.448Z,208.12
2022-08-02T06:53:05.198Z,208.12
2022-08-02T06:54:05.209Z,213.75
2022-08-02T06:55:05.240Z,213.75
2022-08-02T06:56:05.161Z,213.75
2022-08-02T06:57:05.409Z,213.75
2022-08-02T06:58:05.140Z,213.75
2022-08-02T06:59:06.231Z,219.38
2022-08-02T07:00:06.224Z,219.38
2022-08-02T07:01:05.147Z,219.38
2022-08-02T07:02:05.090Z,219.38
2022-08-02T07:03:05.112Z,219.38
2022-08-02T07:04:05.078Z,225.00
2022-08-02T07:05:05.052Z,225.00
2022-08-02T07:06:05.042Z,230.62
2022-08-02T07:07:05.041Z,230.62
2022-08-02T07:08:05.031Z,236.25
2022-08-02T07:09:21.924Z,236.25
2022-08-02T07:10:06.099Z,236.25
2022-08-02T07:11:04.962Z,241.88
2022-08-02T07:12:06.415Z,241.88
2022-08-02T07:13:04.955Z,241.88
2022-08-02T07:14:04.947Z,241.88
2022-08-02T07:15:05.003Z,241.88
2022-08-02T07:16:04.986Z,241.88
2022-08-02T07:17:04.888Z,236.25
2022-08-02T07:18:04.863Z,236.25
2022-08-02T07:19:04.859Z,241.88
2022-08-02T07:20:04.933Z,236.25
2022-08-02T07:21:04.853Z,247.50
2022-08-02T07:22:04.823Z,247.50
2022-08-02T07:23:04.819Z,253.12
2022-08-02T07:24:04.839Z,258.75
2022-08-02T07:25:06.262Z,258.75
2022-08-02T07:26:06.041Z,258.75
2022-08-02T07:27:12.781Z,253.12
2022-08-02T07:28:05.778Z,253.12
2022-08-02T07:29:04.789Z,253.12
2022-08-02T07:30:04.716Z,241.88
2022-08-02T07:31:04.792Z,236.25
2022-08-02T07:32:04.689Z,236.25
2022-08-02T07:33:04.731Z,230.62
2022-08-02T07:34:05.175Z,225.00
2022-08-02T07:35:06.931Z,225.00
2022-08-02T07:36:05.342Z,225.00
2022-08-02T07:37:04.649Z,225.00
2022-08-02T07:38:05.247Z,225.00
2022-08-02T07:39:04.593Z,225.00
2022-08-02T07:40:07.511Z,225.00
2022-08-02T07:41:05.643Z,230.62
2022-08-02T07:42:04.574Z,236.25
2022-08-02T07:43:04.576Z,236.25
2022-08-02T07:44:04.524Z,230.62
2022-08-02T07:45:04.545Z,230.62
2022-08-02T07:46:05.126Z,230.62
2022-08-02T07:47:04.515Z,230.62
2022-08-02T07:48:04.514Z,225.00
2022-08-02T07:49:04.678Z,225.00
2022-08-02T07:50:04.944Z,219.38
2022-08-02T07:51:05.934Z,219.38
2022-08-02T07:52:04.616Z,219.38
2022-08-02T07:53:04.513Z,219.38
2022-08-02T07:54:04.986Z,219.38
2022-08-02T07:55:04.433Z,219.38
2022-08-02T07:56:04.381Z,219.38
2022-08-02T07:57:04.401Z,219.38
2022-08-02T07:58:04.337Z,219.38
2022-08-02T07:59:04.479Z,219.38
2022-08-02T08:00:04.539Z,219.38
2022-08-02T08:01:04.360Z,219.38
2022-08-02T08:02:04.304Z,219.38
2022-08-02T08:03:04.302Z,219.38
2022-08-02T08:04:04.261Z,219.38
2022-08-02T08:05:04.301Z,225.00
2022-08-02T08:06:04.259Z,225.00
2022-08-02T08:07:04.295Z,225.00
2022-08-02T08:08:04.222Z,225.00
2022-08-02T08:09:04.202Z,225.00
2022-08-02T08:10:04.211Z,225.00
2022-08-02T08:11:04.171Z,225.00
2022-08-02T08:12:04.195Z,225.00
2022-08-02T08:13:04.178Z,225.00
2022-08-02T08:14:04.199Z,230.62
2022-08-02T08:15:04.153Z,230.62
2022-08-02T08:16:04.151Z,230.62
2022-08-02T08:17:04.162Z,230.62
2022-08-02T08:18:04.118Z,236.25
2022-08-02T08:19:04.065Z,236.25
2022-08-02T08:20:04.049Z,236.25
2022-08-02T08:21:04.245Z,236.25
2022-08-02T08:22:04.005Z,241.88
2022-08-02T08:23:04.066Z,241.88
2022-08-02T08:24:04.017Z,241.88
2022-08-02T08:25:04.221Z,236.25
2022-08-02T08:26:04.019Z,236.25
2022-08-02T08:27:04.054Z,230.62
2022-08-02T08:28:03.938Z,230.62
2022-08-02T08:29:04.846Z,230.62
2022-08-02T08:30:03.968Z,230.62
2022-08-02T08:31:03.949Z,230.62
2022-08-02T08:32:04.009Z,230.62
2022-08-02T08:33:03.957Z,230.62
2022-08-02T08:34:04.013Z,230.62
2022-08-02T08:35:03.910Z,230.62
2022-08-02T08:36:03.876Z,230.62
2022-08-02T08:37:03.936Z,225.00
2022-08-02T08:38:07.416Z,230.62
2022-08-02T08:39:03.790Z,230.62
2022-08-02T08:40:03.804Z,230.62
2022-08-02T08:41:03.769Z,225.00
2022-08-02T08:42:03.801Z,225.00
2022-08-02T08:43:03.757Z,236.25
2022-08-02T08:44:03.743Z,258.75
2022-08-02T08:45:03.839Z,270.00
2022-08-02T08:46:03.758Z,264.38
2022-08-02T08:47:03.726Z,258.75
2022-08-02T08:48:03.707Z,258.75
2022-08-02T08:49:03.752Z,264.38
2022-08-02T08:50:03.675Z,264.38
2022-08-02T08:51:03.704Z,258.75
2022-08-02T08:52:03.648Z,258.75
2022-08-02T08:53:03.614Z,264.38
2022-08-02T08:54:04.523Z,264.38
2022-08-02T08:55:13.640Z,258.75
2022-08-02T08:56:04.730Z,253.12
2022-08-02T08:57:04.556Z,247.50
2022-08-02T08:58:03.756Z,236.25
2022-08-02T08:59:03.526Z,236.25
2022-08-02T09:00:03.603Z,230.62
2022-08-02T09:01:03.623Z,230.62
2022-08-02T09:02:17.777Z,236.25
2022-08-02T09:03:04.501Z,247.50
2022-08-02T09:04:03.571Z,264.38
2022-08-02T09:05:03.449Z,264.38
2022-08-02T09:06:05.093Z,270.00
2022-08-02T09:07:03.469Z,309.38
2022-08-02T09:08:03.442Z,320.62
2022-08-02T09:09:03.401Z,292.50
2022-08-02T09:10:03.403Z,292.50
2022-08-02T09:11:03.422Z,326.25
2022-08-02T09:12:03.383Z,315.00
2022-08-02T09:13:03.363Z,315.00
2022-08-02T09:14:04.474Z,309.38
2022-08-02T09:15:03.374Z,292.50
2022-08-02T09:16:12.157Z,303.75
2022-08-02T09:17:04.295Z,337.50
2022-08-02T09:18:03.274Z,360.00
2022-08-02T09:19:03.303Z,365.62
2022-08-02T09:20:03.385Z,326.25
2022-08-02T09:21:04.508Z,337.50
2022-08-02T09:22:03.249Z,376.88
2022-08-02T09:23:03.217Z,405.00
2022-08-02T09:24:03.199Z,399.38
2022-08-02T09:25:03.186Z,331.88
2022-08-02T09:26:07.100Z,326.25
2022-08-02T09:27:03.288Z,320.62
2022-08-02T09:28:03.162Z,298.12
2022-08-02T09:29:03.138Z,315.00
2022-08-02T09:30:12.637Z,309.38
2022-08-02T09:31:04.182Z,275.62
2022-08-02T09:32:03.208Z,270.00
2022-08-02T09:33:05.460Z,275.62
2022-08-02T09:34:03.162Z,298.12
2022-08-02T09:35:03.141Z,343.12
2022-08-02T09:36:06.125Z,365.62
2022-08-02T09:37:03.179Z,388.12
2022-08-02T09:38:03.011Z,427.50
2022-08-02T09:39:03.058Z,438.75
2022-08-02T09:40:03.027Z,399.38
2022-08-02T09:41:03.029Z,360.00
2022-08-02T09:42:03.050Z,331.88
2022-08-02T09:43:02.962Z,331.88
2022-08-02T09:44:05.002Z,331.88
2022-08-02T09:45:02.984Z,326.25
2022-08-02T09:46:02.918Z,303.75
2022-08-02T09:47:02.972Z,286.88
2022-08-02T09:48:02.886Z,270.00
2022-08-02T09:49:02.926Z,270.00
2022-08-02T09:50:02.904Z,264.38
2022-08-02T09:51:02.858Z,264.38
2022-08-02T09:52:02.918Z,270.00
2022-08-02T09:53:02.858Z,270.00
2022-08-02T09:54:10.073Z,253.12
2022-08-02T09:55:03.799Z,275.62
2022-08-02T09:56:02.821Z,281.25
2022-08-02T09:57:03.167Z,286.88
2022-08-02T09:58:02.770Z,292.50
2022-08-02T09:59:02.785Z,286.88
2022-08-02T10:00:02.779Z,286.88
2022-08-02T10:01:02.786Z,281.25
2022-08-02T10:02:17.316Z,270.00
2022-08-02T10:03:03.769Z,270.00
2022-08-02T10:04:02.704Z,292.50
2022-08-02T10:05:02.801Z,281.25
2022-08-02T10:06:03.294Z,309.38
2022-08-02T10:07:02.748Z,337.50
2022-08-02T10:08:02.637Z,354.38
2022-08-02T10:09:02.623Z,309.38
2022-08-02T10:10:02.693Z,281.25
2022-08-02T10:11:03.942Z,275.62
2022-08-02T10:12:03.452Z,264.38
2022-08-02T10:13:02.602Z,264.38
2022-08-02T10:14:02.605Z,264.38
2022-08-02T10:15:02.525Z,270.00
2022-08-02T10:16:02.659Z,270.00
2022-08-02T10:17:02.686Z,264.38
2022-08-02T10:18:09.386Z,270.00
2022-08-02T10:19:03.495Z,270.00
2022-08-02T10:20:04.703Z,281.25
2022-08-02T10:21:02.466Z,286.88
2022-08-02T10:22:02.442Z,292.50
2022-08-02T10:23:02.477Z,303.75
2022-08-02T10:24:02.550Z,303.75
2022-08-02T10:25:02.418Z,286.88
2022-08-02T10:26:02.460Z,270.00
2022-08-02T10:27:02.420Z,264.38
2022-08-02T10:28:05.508Z,264.38
2022-08-02T10:29:02.361Z,258.75
2022-08-02T10:30:02.371Z,253.12
2022-08-02T10:31:02.389Z,247.50
2022-08-02T10:32:02.314Z,241.88
2022-08-02T10:33:02.291Z,241.88
2022-08-02T10:34:02.300Z,241.88
2022-08-02T10:35:02.751Z,247.50
2022-08-02T10:36:07.011Z,247.50
2022-08-02T10:37:02.493Z,236.25
2022-08-02T10:38:02.242Z,230.62
2022-08-02T10:39:02.247Z,230.62
2022-08-02T10:40:02.255Z,225.00
2022-08-02T10:41:02.276Z,225.00
2022-08-02T10:42:02.270Z,225.00
2022-08-02T10:43:02.165Z,225.00
2022-08-02T10:44:02.193Z,225.00
2022-08-02T10:45:02.146Z,225.00
2022-08-02T10:46:02.124Z,219.38
2022-08-02T10:47:02.118Z,219.38
2022-08-02T10:48:02.175Z,219.38
2022-08-02T10:49:18.422Z,219.38
2022-08-02T10:50:03.340Z,219.38
2022-08-02T10:51:02.085Z,213.75
2022-08-02T10:52:02.102Z,213.75
2022-08-02T10:53:02.058Z,213.75
2022-08-02T10:54:02.098Z,219.38
2022-08-02T10:55:02.150Z,219.38
2022-08-02T10:56:02.083Z,219.38
2022-08-02T10:57:01.990Z,219.38
2022-08-02T10:58:03.438Z,219.38
2022-08-02T10:59:02.120Z,225.00
2022-08-02T11:00:02.012Z,225.00
2022-08-02T11:01:02.058Z,225.00
2022-08-02T11:02:01.967Z,225.00
2022-08-02T11:03:01.922Z,225.00
2022-08-02T11:04:01.927Z,225.00
2022-08-02T11:05:01.947Z,225.00
2022-08-02T11:06:01.885Z,225.00
2022-08-02T11:07:01.933Z,225.00
2022-08-02T11:08:01.866Z,225.00
2022-08-02T11:09:01.824Z,230.62
2022-08-02T11:10:01.842Z,230.62
2022-08-02T11:11:01.864Z,236.25
2022-08-02T11:12:01.826Z,241.88
2022-08-02T11:13:01.796Z,241.88
2022-08-02T11:14:01.845Z,247.50
2022-08-02T11:15:01.780Z,247.50
2022-08-02T11:16:01.790Z,247.50
2022-08-02T11:17:01.731Z,247.50
2022-08-02T11:18:01.810Z,241.88
2022-08-02T11:19:01.807Z,241.88
2022-08-02T11:20:01.692Z,241.88
2022-08-02T11:21:01.757Z,247.50
2022-08-02T11:22:01.671Z,253.12
2022-08-02T11:23:01.839Z,253.12
2022-08-02T11:24:01.628Z,258.75
2022-08-02T11:25:01.759Z,264.38
2022-08-02T11:26:05.389Z,264.38
2022-08-02T11:27:02.616Z,264.38
2022-08-02T11:28:01.697Z,264.38
2022-08-02T11:29:01.696Z,270.00
2022-08-02T11:30:01.553Z,270.00
2022-08-02T11:31:01.641Z,270.00
2022-08-02T11:32:01.551Z,275.62
2022-08-02T11:33:01.515Z,286.88
2022-08-02T11:34:02.413Z,286.88
2022-08-02T11:35:01.506Z,298.12
2022-08-02T11:36:01.493Z,303.75
2022-08-02T11:37:01.491Z,303.75
2022-08-02T11:38:02.354Z,303.75
2022-08-02T11:39:01.686Z,298.12
2022-08-02T11:40:01.538Z,298.12
2022-08-02T11:41:01.426Z,303.75
2022-08-02T11:42:02.443Z,309.38
2022-08-02T11:43:01.437Z,320.62
2022-08-02T11:44:01.530Z,326.25
2022-08-02T11:45:01.400Z,331.88
2022-08-02T11:46:01.359Z,337.50
2022-08-02T11:47:01.329Z,343.12
2022-08-02T11:48:01.330Z,354.38
2022-08-02T11:49:01.354Z,354.38
2022-08-02T11:50:02.324Z,360.00
2022-08-02T11:51:01.321Z,365.62
2022-08-02T11:52:01.353Z,365.62
2022-08-02T11:53:02.173Z,365.62
2022-08-02T11:54:01.245Z,365.62
2022-08-02T11:55:01.278Z,360.00
2022-08-02T11:56:01.211Z,354.38
2022-08-02T11:57:01.264Z,348.75
2022-08-02T11:58:04.249Z,348.75
2022-08-02T11:59:01.189Z,348.75
2022-08-02T12:00:01.271Z,348.75
2022-08-02T12:01:01.171Z,354.38
2022-08-02T12:02:01.188Z,354.38
2022-08-02T12:03:01.310Z,354.38
2022-08-02T12:04:01.136Z,354.38
2022-08-02T12:05:01.095Z,365.62
2022-08-02T12:06:06.549Z,360.00
2022-08-02T12:07:02.142Z,365.62
2022-08-02T12:08:01.156Z,365.62
2022-08-02T12:09:01.096Z,365.62
2022-08-02T12:10:01.057Z,371.25
2022-08-02T12:11:01.116Z,376.88
2022-08-02T12:12:01.102Z,376.88
2022-08-02T12:13:00.999Z,371.25
2022-08-02T12:14:02.200Z,371.25
2022-08-02T12:15:01.016Z,371.25
2022-08-02T12:16:00.980Z,371.25
2022-08-02T12:17:01.321Z,382.50
2022-08-02T12:18:01.810Z,393.75
2022-08-02T12:19:00.936Z,410.62
2022-08-02T12:20:01.081Z,410.62
2022-08-02T12:21:00.936Z,410.62
2022-08-02T12:22:00.924Z,410.62
2022-08-02T12:23:00.981Z,405.00
2022-08-02T12:24:01.529Z,410.62
2022-08-02T12:25:01.643Z,421.88
2022-08-02T12:26:00.916Z,427.50
2022-08-02T12:27:00.845Z,427.50
2022-08-02T12:28:01.531Z,433.12
2022-08-02T12:29:00.797Z,438.75
2022-08-02T12:30:00.847Z,444.38
2022-08-02T12:31:01.591Z,438.75
2022-08-02T12:32:00.988Z,438.75
2022-08-02T12:33:00.773Z,444.38
2022-08-02T12:34:00.770Z,444.38
2022-08-02T12:35:00.722Z,450.00
2022-08-02T12:36:00.689Z,455.62
2022-08-02T12:37:00.758Z,450.00
2022-08-02T12:38:00.769Z,444.38
2022-08-02T12:39:00.698Z,438.75
2022-08-02T12:40:00.680Z,438.75
2022-08-02T12:41:00.681Z,438.75
2022-08-02T12:42:00.720Z,433.12
2022-08-02T12:43:00.621Z,438.75